Time;durP1;ratioP1;P1;durP2;ratioP2;P2;SDS_P1;SDS_P2;PMS_P1;PMS_P2;Temp;Humidity;BMP_temperature;BMP_pressure;BME280_temperature;BME280_humidity;BME280_pressure;Samples;Min_cycle;Max_cycle;Signal;HPM_P1;HPM_P2
2022/10/26 00:02:20;;;;;;;6.43;4.50;;;11.20;99.90;;;;;;4987500;28;20243;-89
2022/10/26 00:04:46;;;;;;;7.50;3.67;;;11.30;99.90;;;;;;4980204;28;20686;-90
2022/10/26 00:07:11;;;;;;;5.80;3.20;;;11.30;99.90;;;;;;4936019;28;20228;-90
2022/10/26 00:09:37;;;;;;;5.67;4.40;;;11.30;99.90;;;;;;5012445;28;20246;-89
2022/10/26 00:12:03;;;;;;;6.77;3.33;;;11.30;99.90;;;;;;4954784;28;20271;-91
2022/10/26 00:14:29;;;;;;;5.60;3.23;;;11.40;99.90;;;;;;4978995;28;20716;-90
2022/10/26 00:16:55;;;;;;;6.93;3.67;;;11.40;99.90;;;;;;4988708;28;20334;-89
2022/10/26 00:19:21;;;;;;;7.93;2.97;;;11.30;99.90;;;;;;4994810;28;20294;-89
2022/10/26 00:21:46;;;;;;;6.03;4.60;;;11.30;99.90;;;;;;5014485;28;20195;-90
2022/10/26 00:24:12;;;;;;;9.67;3.87;;;11.30;99.90;;;;;;4986906;28;20223;-91
2022/10/26 00:26:38;;;;;;;4.27;3.47;;;11.30;99.90;;;;;;4987176;28;20227;-90
2022/10/26 00:29:04;;;;;;;6.87;3.70;;;11.40;99.90;;;;;;4990257;28;20631;-91
2022/10/26 00:31:30;;;;;;;8.70;5.40;;;11.40;99.90;;;;;;4995719;28;20639;-88
2022/10/26 00:33:56;;;;;;;6.63;5.07;;;11.40;99.90;;;;;;5000195;28;20193;-88
2022/10/26 00:36:24;;;;;;;8.10;3.90;;;11.40;99.90;;;;;;4987192;28;20212;-89
2022/10/26 00:38:55;;;;;;;4.93;3.07;;;11.40;99.90;;;;;;5007985;28;20264;-88
2022/10/26 00:41:29;;;;;;;6.63;5.00;;;11.40;99.90;;;;;;4973938;28;20694;-90
2022/10/26 00:43:56;;;;;;;3.67;3.30;;;11.40;99.90;;;;;;4982343;28;20243;-90
2022/10/26 00:46:26;;;;;;;8.87;3.53;;;11.40;99.90;;;;;;4988268;28;20651;-90
2022/10/26 00:48:59;;;;;;;6.67;3.97;;;11.30;99.90;;;;;;4990054;28;20207;-88
2022/10/26 00:51:33;;;;;;;7.10;4.30;;;11.30;99.90;;;;;;4989642;28;20557;-89
2022/10/26 00:54:06;;;;;;;4.00;3.10;;;11.30;99.90;;;;;;5012720;28;20250;-88
2022/10/26 00:56:34;;;;;;;7.50;4.13;;;11.20;99.90;;;;;;5001424;28;20295;-89
2022/10/26 00:59:06;;;;;;;21.27;4.77;;;11.20;99.90;;;;;;4995726;28;20239;-91
2022/10/26 01:01:34;;;;;;;3.70;3.27;;;11.30;99.90;;;;;;5002131;28;20228;-89
2022/10/26 01:04:00;;;;;;;4.00;2.90;;;11.20;99.90;;;;;;4986392;28;20196;-91
2022/10/26 01:06:29;;;;;;;8.20;4.20;;;11.20;99.90;;;;;;5017485;28;20568;-90
2022/10/26 01:08:55;;;;;;;10.27;4.63;;;11.10;99.90;;;;;;4991912;28;20228;-90
2022/10/26 01:11:20;;;;;;;6.13;4.23;;;11.10;99.90;;;;;;4990093;28;20220;-91
2022/10/26 01:13:49;;;;;;;3.63;3.03;;;11.10;99.90;;;;;;4967149;28;20270;-89
2022/10/26 01:16:50;;;;;;;6.13;3.77;;;11.10;99.90;;;;;;4972873;28;20283;-88
2022/10/26 01:19:56;;;;;;;8.07;4.20;;;11.10;99.90;;;;;;5000802;28;20180;-89
2022/10/26 01:22:28;;;;;;;11.07;3.20;;;11.10;99.90;;;;;;4997375;28;20304;-90
2022/10/26 01:25:10;;;;;;;9.63;4.07;;;11.00;99.90;;;;;;4989043;28;20242;-87
2022/10/26 01:27:46;;;;;;;14.20;4.23;;;11.00;99.90;;;;;;4990200;28;20531;-85
2022/10/26 01:30:20;;;;;;;6.33;3.53;;;11.00;99.90;;;;;;4989820;28;20311;-90
2022/10/26 01:33:01;;;;;;;4.07;3.67;;;10.90;99.90;;;;;;5012138;28;20230;-91
2022/10/26 01:35:59;;;;;;;12.67;5.23;;;10.90;99.90;;;;;;4988787;28;20224;-90
2022/10/26 01:38:46;;;;;;;5.57;2.93;;;10.90;99.90;;;;;;4978908;28;20232;-89
2022/10/26 01:41:24;;;;;;;6.20;3.80;;;10.80;99.90;;;;;;4979206;28;20366;-90
2022/10/26 01:43:56;;;;;;;3.37;2.60;;;10.80;99.90;;;;;;4988689;28;20216;-89
2022/10/26 01:46:24;;;;;;;12.30;3.43;;;10.80;99.90;;;;;;5004178;28;20657;-90
2022/10/26 01:49:00;;;;;;;5.20;3.60;;;10.80;99.90;;;;;;4988783;28;20219;-87
2022/10/26 01:51:27;;;;;;;7.07;4.83;;;10.80;99.90;;;;;;4989333;28;20223;-90
2022/10/26 01:53:53;;;;;;;5.40;4.57;;;10.80;99.90;;;;;;4988380;28;20216;-90
2022/10/26 01:56:30;;;;;;;13.67;3.93;;;10.80;99.90;;;;;;4961899;28;20235;-91
2022/10/26 01:59:02;;;;;;;8.80;4.30;;;10.80;99.90;;;;;;4980720;28;20227;-90
2022/10/26 02:01:47;;;;;;;6.67;4.57;;;10.80;99.90;;;;;;5001001;28;20224;-90
2022/10/26 02:04:50;;;;;;;3.27;2.97;;;10.80;99.90;;;;;;4971702;28;20531;-87
2022/10/26 02:07:32;;;;;;;4.43;3.60;;;10.80;99.90;;;;;;4945595;28;20251;-90
2022/10/26 02:10:06;;;;;;;6.43;3.67;;;10.80;99.90;;;;;;4989335;28;20192;-88
2022/10/26 02:12:55;;;;;;;3.87;3.23;;;10.80;99.90;;;;;;4984989;28;20267;-90
2022/10/26 02:15:36;;;;;;;7.27;4.77;;;10.80;99.90;;;;;;4997132;28;21422;-89
2022/10/26 02:18:21;;;;;;;5.83;3.23;;;10.80;99.90;;;;;;4997619;28;20305;-91
2022/10/26 02:20:52;;;;;;;9.00;3.50;;;10.80;99.90;;;;;;5013446;28;20219;-88
2022/10/26 02:23:19;;;;;;;7.80;4.77;;;10.80;99.90;;;;;;4995839;28;20231;-90
2022/10/26 02:25:57;;;;;;;4.70;3.77;;;10.70;99.90;;;;;;4997372;28;20624;-88
2022/10/26 02:28:36;;;;;;;5.93;3.97;;;10.70;99.90;;;;;;4996028;28;20330;-89
2022/10/26 02:31:04;;;;;;;4.17;3.70;;;10.70;99.90;;;;;;4986691;28;20184;-88
2022/10/26 02:33:40;;;;;;;8.03;4.00;;;10.70;99.90;;;;;;4966337;28;20220;-89
2022/10/26 02:36:10;;;;;;;5.13;3.67;;;10.70;99.90;;;;;;4995851;28;20211;-87
2022/10/26 02:38:38;;;;;;;6.20;4.00;;;10.70;99.90;;;;;;4992076;28;20235;-91
2022/10/26 02:41:06;;;;;;;5.10;3.73;;;10.60;99.90;;;;;;4986120;28;20220;-88
2022/10/26 02:43:38;;;;;;;7.77;4.33;;;10.60;99.90;;;;;;4983590;28;20216;-87
2022/10/26 02:46:07;;;;;;;12.27;4.00;;;10.60;99.90;;;;;;4966027;28;20643;-89
2022/10/26 02:48:34;;;;;;;12.40;4.90;;;10.50;99.90;;;;;;4986186;28;20216;-88
2022/10/26 02:51:06;;;;;;;6.33;3.60;;;10.50;99.90;;;;;;4953219;28;20287;-87
2022/10/26 02:53:39;;;;;;;4.97;3.77;;;10.60;99.90;;;;;;4999074;28;20259;-88
2022/10/26 02:56:17;;;;;;;5.83;3.67;;;10.50;99.90;;;;;;4999729;28;20223;-90
2022/10/26 02:58:46;;;;;;;4.20;3.37;;;10.60;99.90;;;;;;4974177;28;20227;-89
2022/10/26 03:01:12;;;;;;;6.17;3.27;;;10.50;99.90;;;;;;4997137;28;20187;-90
2022/10/26 03:03:38;;;;;;;4.03;2.87;;;10.50;99.90;;;;;;4977608;28;20191;-90
2022/10/26 03:06:04;;;;;;;4.97;3.37;;;10.50;99.90;;;;;;4952845;28;20590;-89
2022/10/26 03:08:30;;;;;;;8.47;3.30;;;10.50;99.90;;;;;;4998523;28;20243;-91
2022/10/26 03:10:56;;;;;;;5.57;3.63;;;10.40;99.90;;;;;;4982256;28;20224;-89
2022/10/26 03:13:22;;;;;;;5.07;3.17;;;10.30;99.90;;;;;;4936131;28;20745;-91
2022/10/26 03:15:48;;;;;;;6.27;4.30;;;10.30;99.90;;;;;;4986131;28;20673;-89
2022/10/26 03:18:14;;;;;;;10.37;4.33;;;10.30;99.90;;;;;;4985671;28;20228;-89
2022/10/26 03:20:43;;;;;;;5.90;3.40;;;10.30;99.90;;;;;;4985029;28;20247;-90
2022/10/26 03:23:09;;;;;;;5.00;3.77;;;10.40;99.90;;;;;;4984258;28;20228;-89
2022/10/26 03:25:35;;;;;;;7.53;3.70;;;10.40;99.90;;;;;;4964434;28;20229;-88
2022/10/26 03:28:03;;;;;;;10.30;3.77;;;10.40;99.90;;;;;;4966873;28;20209;-91
2022/10/26 03:30:29;;;;;;;7.93;3.60;;;10.40;99.90;;;;;;4986145;28;20270;-87
2022/10/26 03:32:55;;;;;;;4.67;4.13;;;10.40;99.90;;;;;;4969109;28;20280;-88
2022/10/26 03:35:21;;;;;;;5.63;4.13;;;10.40;99.90;;;;;;4999705;28;20682;-88
2022/10/26 03:37:47;;;;;;;4.53;4.10;;;10.40;99.90;;;;;;4978960;28;20345;-91
2022/10/26 03:40:13;;;;;;;5.47;4.00;;;10.40;99.90;;;;;;4977997;28;20256;-88
2022/10/26 03:42:40;;;;;;;5.23;3.97;;;10.50;99.90;;;;;;4984785;28;20279;-90
2022/10/26 03:45:07;;;;;;;8.73;4.33;;;10.50;99.90;;;;;;4967052;28;20213;-88
2022/10/26 03:47:33;;;;;;;6.50;4.37;;;10.50;99.90;;;;;;4980158;28;20596;-87
2022/10/26 03:49:59;;;;;;;9.53;3.40;;;10.40;99.90;;;;;;4942930;28;20682;-90
2022/10/26 03:52:25;;;;;;;4.30;3.90;;;10.40;99.90;;;;;;4991436;28;20216;-89
2022/10/26 03:54:51;;;;;;;3.23;2.90;;;10.50;99.90;;;;;;4952558;28;20629;-90
2022/10/26 03:57:17;;;;;;;8.10;4.73;;;10.60;99.90;;;;;;4949349;28;20224;-91
2022/10/26 03:59:42;;;;;;;7.07;3.80;;;10.70;99.90;;;;;;4976980;28;20244;-89
2022/10/26 04:02:08;;;;;;;3.90;3.60;;;10.80;99.90;;;;;;4942954;28;20223;-90
2022/10/26 04:04:34;;;;;;;7.83;3.37;;;10.80;99.90;;;;;;4963713;28;20631;-86
2022/10/26 04:06:59;;;;;;;5.43;3.10;;;10.80;99.90;;;;;;4947053;28;20189;-89
2022/10/26 04:09:25;;;;;;;4.27;3.97;;;10.80;99.90;;;;;;4976045;28;21130;-90
2022/10/26 04:11:51;;;;;;;6.27;3.93;;;10.90;99.90;;;;;;4992515;28;20550;-88
2022/10/26 04:14:17;;;;;;;4.53;3.50;;;10.90;99.90;;;;;;4995768;28;20227;-90
2022/10/26 04:16:42;;;;;;;9.97;5.27;;;11.00;99.90;;;;;;4989525;28;20678;-91
2022/10/26 04:19:08;;;;;;;4.27;3.63;;;11.00;99.90;;;;;;4966727;28;20197;-89
2022/10/26 04:21:34;;;;;;;7.23;4.70;;;11.00;99.90;;;;;;5002770;28;20196;-87
2022/10/26 04:24:00;;;;;;;5.27;3.87;;;11.10;99.90;;;;;;4938272;28;20267;-87
2022/10/26 04:26:27;;;;;;;8.83;5.77;;;11.20;99.90;;;;;;4978184;28;20231;-88
2022/10/26 04:28:53;;;;;;;7.00;4.83;;;11.20;99.90;;;;;;4962745;28;20949;-89
2022/10/26 04:31:18;;;;;;;8.10;4.87;;;11.30;99.90;;;;;;4969171;28;20188;-90
2022/10/26 04:33:44;;;;;;;6.90;4.93;;;11.40;99.90;;;;;;4980605;28;20708;-89
2022/10/26 04:36:10;;;;;;;9.37;5.47;;;11.50;99.90;;;;;;4978050;28;20274;-88
2022/10/26 04:38:36;;;;;;;7.03;6.30;;;11.50;99.90;;;;;;4989993;28;20303;-88
2022/10/26 04:41:01;;;;;;;7.90;5.10;;;11.50;99.90;;;;;;4985673;28;20227;-87
2022/10/26 04:43:27;;;;;;;11.87;5.07;;;11.60;99.90;;;;;;4969936;28;20226;-89
2022/10/26 04:45:57;;;;;;;8.23;5.63;;;11.60;99.90;;;;;;4986582;28;20282;-88
2022/10/26 04:48:23;;;;;;;9.07;6.63;;;11.60;99.90;;;;;;4986658;28;20309;-90
2022/10/26 04:50:49;;;;;;;11.33;5.17;;;11.60;99.90;;;;;;5008878;28;20258;-87
2022/10/26 04:53:15;;;;;;;10.07;5.03;;;11.70;99.90;;;;;;4994666;28;20682;-89
2022/10/26 04:55:41;;;;;;;7.87;4.37;;;11.70;99.90;;;;;;4993740;28;20226;-89
2022/10/26 04:58:07;;;;;;;15.03;6.13;;;11.70;99.90;;;;;;4994854;28;20250;-89
2022/10/26 05:00:33;;;;;;;9.10;6.37;;;11.70;99.90;;;;;;4996538;28;20191;-89
2022/10/26 05:03:00;;;;;;;9.60;5.70;;;11.80;99.90;;;;;;4955654;28;20230;-89
2022/10/26 05:05:26;;;;;;;9.60;5.50;;;11.80;99.90;;;;;;4950464;28;20224;-87
2022/10/26 05:07:55;;;;;;;7.07;5.10;;;11.80;99.90;;;;;;4949268;28;20239;-87
2022/10/26 05:10:21;;;;;;;7.00;5.27;;;11.80;99.90;;;;;;4969314;28;20248;-88
2022/10/26 05:12:55;;;;;;;7.10;4.50;;;11.80;99.90;;;;;;4996267;28;20274;-87
2022/10/26 05:15:21;;;;;;;8.63;6.50;;;11.80;99.90;;;;;;4986391;28;20227;-89
2022/10/26 05:17:46;;;;;;;5.80;5.20;;;11.80;99.90;;;;;;4985142;28;20615;-90
2022/10/26 05:20:13;;;;;;;6.77;5.00;;;11.80;99.90;;;;;;4989774;28;20227;-87
2022/10/26 05:22:39;;;;;;;6.23;5.50;;;11.80;99.90;;;;;;4983946;28;20343;-87
2022/10/26 05:25:05;;;;;;;9.60;5.90;;;11.80;99.90;;;;;;4969440;28;20193;-90
2022/10/26 05:27:31;;;;;;;10.33;5.30;;;11.80;99.90;;;;;;4999612;28;20284;-90
2022/10/26 05:29:57;;;;;;;8.83;5.87;;;11.90;99.90;;;;;;4997413;28;20220;-89
2022/10/26 05:32:22;;;;;;;11.20;6.17;;;11.90;99.90;;;;;;4988676;28;20328;-90
2022/10/26 05:34:48;;;;;;;8.80;6.33;;;11.90;99.90;;;;;;4985525;28;20220;-87
2022/10/26 05:37:14;;;;;;;9.43;6.23;;;11.90;99.90;;;;;;4955163;28;20228;-89
2022/10/26 05:39:39;;;;;;;6.63;4.80;;;11.90;99.90;;;;;;4990566;28;20196;-89
2022/10/26 05:42:05;;;;;;;8.63;6.30;;;11.90;99.90;;;;;;4997981;28;20223;-88
2022/10/26 05:44:31;;;;;;;12.40;7.30;;;11.90;99.90;;;;;;4988776;28;20721;-90
2022/10/26 05:46:57;;;;;;;9.17;5.80;;;12.00;99.90;;;;;;4969764;28;20227;-88
2022/10/26 05:49:22;;;;;;;8.23;7.00;;;12.00;99.90;;;;;;4939790;28;20293;-89
2022/10/26 05:51:48;;;;;;;11.47;7.07;;;12.00;99.90;;;;;;4972924;28;20196;-87
2022/10/26 05:54:14;;;;;;;9.17;6.27;;;12.00;99.90;;;;;;4997305;28;20301;-88
2022/10/26 05:56:40;;;;;;;6.53;5.37;;;12.00;99.90;;;;;;4978839;28;20224;-88
2022/10/26 05:59:14;;;;;;;9.93;6.13;;;12.00;99.90;;;;;;4969935;28;20243;-87
2022/10/26 06:02:02;;;;;;;11.17;5.37;;;12.00;99.90;;;;;;4985482;28;20250;-86
2022/10/26 06:04:37;;;;;;;11.80;5.77;;;12.00;99.90;;;;;;4973284;28;20565;-87
2022/10/26 06:07:11;;;;;;;8.57;6.20;;;12.00;99.90;;;;;;5004937;28;20183;-88
2022/10/26 06:09:38;;;;;;;11.80;6.33;;;12.00;99.90;;;;;;4988700;28;20208;-90
2022/10/26 06:12:04;;;;;;;9.80;7.13;;;12.00;99.90;;;;;;4971532;28;20232;-87
2022/10/26 06:14:30;;;;;;;9.37;6.07;;;12.00;99.90;;;;;;4971373;28;20534;-86
2022/10/26 06:17:03;;;;;;;9.53;5.57;;;12.00;99.90;;;;;;4966167;28;20239;-87
2022/10/26 06:20:01;;;;;;;8.43;5.67;;;12.00;99.90;;;;;;4997532;28;20623;-89
2022/10/26 06:22:47;;;;;;;10.30;5.07;;;12.00;99.90;;;;;;4998021;28;20220;-87
2022/10/26 06:25:24;;;;;;;9.40;6.40;;;12.00;99.90;;;;;;4996380;28;20226;-87
2022/10/26 06:28:04;;;;;;;7.17;5.47;;;12.00;99.90;;;;;;4988496;28;20295;-88
2022/10/26 06:30:31;;;;;;;9.90;6.33;;;12.00;99.90;;;;;;4968028;28;20267;-87
2022/10/26 06:33:00;;;;;;;11.90;6.67;;;12.00;99.90;;;;;;4983975;28;20317;-86
2022/10/26 06:35:44;;;;;;;10.30;5.87;;;12.00;99.90;;;;;;4969091;28;20221;-88
2022/10/26 06:38:17;;;;;;;9.40;5.60;;;12.10;99.90;;;;;;4967998;28;20232;-89
2022/10/26 06:40:46;;;;;;;6.73;5.13;;;12.10;99.90;;;;;;4969230;28;20231;-86
2022/10/26 06:43:26;;;;;;;9.63;6.47;;;12.10;99.90;;;;;;4967726;28;20208;-91
2022/10/26 06:46:04;;;;;;;17.50;6.60;;;12.10;99.90;;;;;;4969785;28;20197;-90
2022/10/26 06:48:53;;;;;;;5.97;4.27;;;12.10;99.90;;;;;;4969810;28;20234;-90
2022/10/26 06:51:19;;;;;;;7.83;4.77;;;12.10;99.90;;;;;;4976647;28;20239;-88
2022/10/26 06:54:04;;;;;;;7.57;5.47;;;12.10;99.90;;;;;;4988264;28;20437;-91
2022/10/26 06:56:30;;;;;;;8.80;5.67;;;12.10;99.90;;;;;;4991249;28;20220;-90
2022/10/26 06:59:07;;;;;;;13.40;6.47;;;12.10;99.90;;;;;;4983520;28;20239;-95
2022/10/26 07:01:33;;;;;;;6.23;4.80;;;12.10;99.90;;;;;;4991608;28;20257;-91
2022/10/26 07:03:59;;;;;;;8.73;4.90;;;12.20;99.90;;;;;;4944862;28;20231;-94
2022/10/26 07:06:25;;;;;;;8.33;6.00;;;12.20;99.90;;;;;;4945561;28;21054;-93
2022/10/26 07:08:50;;;;;;;5.73;5.13;;;12.30;99.90;;;;;;4962142;28;20247;-95
2022/10/26 07:11:16;;;;;;;9.90;5.53;;;12.30;99.90;;;;;;4960986;28;20273;-93
2022/10/26 07:13:42;;;;;;;8.83;5.93;;;12.30;99.90;;;;;;5004194;28;20227;-95
2022/10/26 07:16:07;;;;;;;7.00;5.77;;;12.40;99.90;;;;;;4997638;28;20258;-93
2022/10/26 07:18:33;;;;;;;9.57;6.23;;;12.40;99.90;;;;;;4982350;28;20242;-94
2022/10/26 07:20:59;;;;;;;8.07;5.93;;;12.40;99.90;;;;;;4946670;28;21248;-91
2022/10/26 07:23:25;;;;;;;11.33;5.87;;;12.50;99.90;;;;;;4974505;28;20223;-92
2022/10/26 07:25:50;;;;;;;11.07;5.83;;;12.50;99.90;;;;;;5009762;28;20590;-92
2022/10/26 07:28:16;;;;;;;6.13;4.50;;;12.60;99.90;;;;;;4963424;28;20713;-92
2022/10/26 07:30:42;;;;;;;8.17;4.83;;;12.60;99.90;;;;;;4983418;28;20423;-91
2022/10/26 07:33:11;;;;;;;15.57;6.60;;;12.70;99.90;;;;;;4966136;28;20223;-92
2022/10/26 07:35:37;;;;;;;6.83;5.30;;;12.80;99.90;;;;;;4988876;28;20223;-93
2022/10/26 07:38:04;;;;;;;8.20;6.13;;;12.80;99.90;;;;;;4989213;28;20227;-95
2022/10/26 07:40:30;;;;;;;9.03;5.70;;;12.90;99.90;;;;;;4981240;28;20216;-94
2022/10/26 07:42:57;;;;;;;9.13;6.33;;;13.00;99.90;;;;;;4983624;28;20208;-91
2022/10/26 07:45:24;;;;;;;5.80;4.60;;;13.00;99.90;;;;;;4998402;28;20221;-91
2022/10/26 07:47:50;;;;;;;6.33;5.00;;;13.10;99.90;;;;;;4998415;28;20232;-93
2022/10/26 07:50:16;;;;;;;6.63;4.73;;;13.20;99.90;;;;;;4999420;28;20228;-93
2022/10/26 07:52:42;;;;;;;8.13;5.73;;;13.20;99.90;;;;;;4991914;28;20262;-92
2022/10/26 07:55:09;;;;;;;10.90;6.10;;;13.20;99.90;;;;;;5007002;28;20192;-92
2022/10/26 07:57:36;;;;;;;7.90;5.43;;;13.30;99.90;;;;;;5007425;28;20196;-92
2022/10/26 08:00:06;;;;;;;8.47;5.63;;;13.50;99.90;;;;;;5011341;28;20243;-91
2022/10/26 08:02:32;;;;;;;10.87;5.40;;;14.00;99.90;;;;;;5027710;23;20317;-93
2022/10/26 08:04:58;;;;;;;8.63;4.87;;;14.20;99.90;;;;;;5006617;28;20188;-92
2022/10/26 08:07:25;;;;;;;9.47;5.00;;;14.90;99.90;;;;;;4990841;28;20687;-92
2022/10/26 08:09:51;;;;;;;10.70;5.07;;;15.40;99.90;;;;;;5000670;28;20234;-92
2022/10/26 08:12:17;;;;;;;7.20;5.13;;;16.40;99.90;;;;;;4999895;28;20211;-92
2022/10/26 08:14:43;;;;;;;8.40;4.90;;;16.90;99.90;;;;;;4991611;28;20235;-92
2022/10/26 08:17:08;;;;;;;6.37;4.00;;;17.20;99.90;;;;;;4948228;28;20221;-93
2022/10/26 08:19:35;;;;;;;4.60;3.90;;;16.60;99.90;;;;;;4953690;28;20303;-92
2022/10/26 08:22:00;;;;;;;10.33;4.60;;;16.20;99.90;;;;;;4954493;28;20633;-92
2022/10/26 08:24:26;;;;;;;5.70;4.27;;;15.70;99.90;;;;;;4965660;28;20226;-92
2022/10/26 08:26:52;;;;;;;6.77;3.50;;;15.30;99.90;;;;;;5000811;28;20230;-92
2022/10/26 08:29:17;;;;;;;4.53;3.90;;;15.00;99.90;;;;;;4953840;28;20291;-92
2022/10/26 08:31:44;;;;;;;6.07;3.23;;;14.90;99.90;;;;;;4938501;28;20224;-93
2022/10/26 08:34:09;;;;;;;5.50;4.27;;;14.90;99.90;;;;;;4955635;28;20653;-93
2022/10/26 08:36:35;;;;;;;4.27;3.87;;;14.90;99.90;;;;;;4973874;28;20293;-93
2022/10/26 08:39:01;;;;;;;4.33;2.80;;;14.90;99.90;;;;;;4941283;28;20224;-92
2022/10/26 08:41:33;;;;;;;5.67;4.10;;;14.90;99.90;;;;;;4937890;28;20221;-91
2022/10/26 08:44:23;;;;;;;4.93;3.50;;;15.00;99.90;;;;;;4978507;28;20212;-92
2022/10/26 08:46:58;;;;;;;8.53;4.73;;;15.20;99.90;;;;;;4982261;28;20216;-93
2022/10/26 08:49:34;;;;;;;6.07;3.60;;;15.30;99.90;;;;;;4990270;28;20227;-92
2022/10/26 08:52:02;;;;;;;6.63;4.00;;;15.40;99.90;;;;;;4998532;28;20263;-92
2022/10/26 08:54:42;;;;;;;9.20;4.30;;;15.50;99.90;;;;;;4989574;28;20613;-92
2022/10/26 08:57:21;;;;;;;4.10;3.40;;;15.50;99.90;;;;;;4973418;28;20220;-92
2022/10/26 09:00:20;;;;;;;5.10;3.30;;;15.60;99.90;;;;;;4987042;28;20219;-92
2022/10/26 09:02:50;;;;;;;4.77;4.37;;;15.80;99.90;;;;;;5013537;28;20243;-91
2022/10/26 09:05:22;;;;;;;4.47;3.30;;;16.00;99.90;;;;;;5003215;28;20231;-92
2022/10/26 09:08:08;;;;;;;4.97;3.53;;;16.10;99.90;;;;;;4997807;28;20227;-91
2022/10/26 09:10:59;;;;;;;7.30;3.53;;;16.30;99.90;;;;;;4992326;28;20366;-92
2022/10/26 09:13:36;;;;;;;6.67;3.23;;;16.40;99.90;;;;;;5009356;28;20218;-92
2022/10/26 09:16:06;;;;;;;3.47;2.77;;;16.40;99.90;;;;;;5016664;28;20250;-91
2022/10/26 09:18:52;;;;;;;5.00;3.50;;;16.40;99.90;;;;;;4992121;28;20657;-91
2022/10/26 09:21:46;;;;;;;8.37;4.00;;;16.60;99.90;;;;;;5002703;28;20604;-92
2022/10/26 09:24:20;;;;;;;8.60;3.07;;;16.60;99.90;;;;;;4995231;28;20702;-92
2022/10/26 09:27:05;;;;;;;9.20;3.37;;;16.80;99.90;;;;;;4978579;28;20745;-92
2022/10/26 09:29:37;;;;;;;7.13;2.90;;;16.80;99.90;;;;;;4981596;28;20228;-92
2022/10/26 09:32:05;;;;;;;6.70;2.63;;;16.90;99.90;;;;;;4979819;28;20220;-92
2022/10/26 09:34:43;;;;;;;6.40;3.40;;;17.00;99.90;;;;;;4992521;28;20226;-92
2022/10/26 09:37:17;;;;;;;4.13;2.63;;;17.10;99.90;;;;;;4999038;28;20179;-92
2022/10/26 09:39:51;;;;;;;5.43;2.43;;;17.20;99.90;;;;;;4992035;28;20218;-93
2022/10/26 09:42:40;;;;;;;4.07;2.20;;;17.20;99.90;;;;;;4957273;28;20220;-91
2022/10/26 09:45:24;;;;;;;4.10;2.00;;;17.20;99.90;;;;;;4982855;28;20212;-92
2022/10/26 09:47:52;;;;;;;2.80;2.40;;;17.00;99.90;;;;;;4999864;28;20302;-92
2022/10/26 09:50:27;;;;;;;4.07;2.50;;;17.00;99.90;;;;;;4995884;28;20295;-93
2022/10/26 09:52:53;;;;;;;5.00;2.23;;;17.20;99.90;;;;;;4984273;28;20350;-91
2022/10/26 09:55:20;;;;;;;2.93;2.13;;;17.30;99.90;;;;;;4957267;28;20647;-92
2022/10/26 09:57:53;;;;;;;3.03;2.37;;;17.40;99.90;;;;;;4960252;28;20192;-92
2022/10/26 10:00:20;;;;;;;3.80;2.33;;;17.50;99.90;;;;;;4998766;28;20215;-92
2022/10/26 10:02:55;;;;;;;2.00;1.80;;;17.50;99.90;;;;;;4994351;28;20232;-92
2022/10/26 10:05:40;;;;;;;2.47;2.10;;;17.50;99.90;;;;;;4967882;28;20251;-93
2022/10/26 10:08:26;;;;;;;2.90;2.60;;;17.40;99.90;;;;;;4956162;28;20232;-93
2022/10/26 10:11:15;;;;;;;3.53;2.10;;;17.50;99.90;;;;;;5003165;28;20222;-93
2022/10/26 10:13:43;;;;;;;5.53;2.07;;;17.60;99.90;;;;;;4966045;28;20221;-93
2022/10/26 10:16:22;;;;;;;3.87;2.23;;;17.60;99.90;;;;;;4972109;28;20189;-92
2022/10/26 10:18:57;;;;;;;4.00;2.10;;;17.50;99.90;;;;;;4991673;28;20183;-92
2022/10/26 10:22:08;;;;;;;2.40;2.20;;;17.50;99.90;;;;;;4990226;28;20726;-93
2022/10/26 10:24:36;;;;;;;5.80;1.83;;;17.50;99.90;;;;;;5000525;28;20215;-93
2022/10/26 10:27:14;;;;;;;3.30;2.30;;;17.60;99.90;;;;;;4985731;28;20212;-92
2022/10/26 10:29:46;;;;;;;2.73;2.27;;;17.70;99.90;;;;;;5016157;28;21043;-92
2022/10/26 10:32:21;;;;;;;3.23;1.70;;;17.80;99.90;;;;;;4993946;28;20226;-93
2022/10/26 10:34:48;;;;;;;2.07;1.70;;;17.80;99.90;;;;;;5000448;28;20220;-93
2022/10/26 10:37:30;;;;;;;2.63;1.80;;;17.80;99.90;;;;;;4941610;28;20231;-92
2022/10/26 10:40:03;;;;;;;2.03;1.77;;;17.80;99.90;;;;;;5002100;28;20179;-92
2022/10/26 10:42:38;;;;;;;3.40;2.27;;;17.90;99.90;;;;;;5002430;28;20216;-94
2022/10/26 10:45:06;;;;;;;3.53;2.00;;;18.10;99.90;;;;;;4990639;28;20581;-93
2022/10/26 10:47:57;;;;;;;1.97;1.70;;;18.40;99.90;;;;;;5006043;28;20220;-93
2022/10/26 10:50:23;;;;;;;2.80;1.87;;;18.40;99.90;;;;;;4993461;28;20750;-93
2022/10/26 10:52:52;;;;;;;2.70;1.60;;;18.60;99.90;;;;;;4988565;28;20230;-94
2022/10/26 10:55:21;;;;;;;5.60;1.43;;;19.10;99.90;;;;;;4978655;28;20188;-94
2022/10/26 10:58:20;;;;;;;2.20;2.00;;;19.80;99.90;;;;;;5010968;28;20219;-94
2022/10/26 11:00:48;;;;;;;2.87;2.07;;;20.50;99.90;;;;;;5001715;28;20221;-94
2022/10/26 11:03:20;;;;;;;5.53;2.07;;;20.80;99.90;;;;;;5006385;28;20746;-96
2022/10/26 11:06:02;;;;;;;3.50;2.20;;;20.90;99.90;;;;;;5015345;28;20227;-96
2022/10/26 11:08:39;;;;;;;1.87;1.50;;;20.90;99.90;;;;;;4999153;28;20782;-94
2022/10/26 11:11:15;;;;;;;3.47;1.97;;;21.10;99.90;;;;;;4995598;28;20714;-95
2022/10/26 11:13:45;;;;;;;5.87;2.63;;;21.00;99.90;;;;;;4998530;28;20210;-94
2022/10/26 11:16:15;;;;;;;2.83;2.43;;;21.10;99.90;;;;;;5007434;28;20651;-94
2022/10/26 11:18:49;;;;;;;2.00;1.87;;;21.50;99.90;;;;;;4999667;28;20274;-94
2022/10/26 11:21:25;;;;;;;3.37;2.50;;;21.40;99.90;;;;;;5003903;28;20215;-94
2022/10/26 11:24:12;;;;;;;5.10;2.20;;;21.20;99.90;;;;;;4993871;28;20220;-95
2022/10/26 11:26:43;;;;;;;2.57;2.00;;;21.20;99.90;;;;;;5012521;28;20228;-96
2022/10/26 11:29:35;;;;;;;3.43;2.07;;;21.00;99.90;;;;;;4996355;28;20227;-96
2022/10/26 11:32:39;;;;;;;4.20;2.30;;;20.90;99.90;;;;;;4987984;28;20774;-95
2022/10/26 11:35:05;;;;;;;2.63;2.30;;;20.90;99.90;;;;;;5001012;28;20584;-96
2022/10/26 11:37:44;;;;;;;5.13;2.03;;;21.20;99.90;;;;;;4996383;28;20218;-95
2022/10/26 11:40:24;;;;;;;3.63;2.20;;;21.10;99.90;;;;;;5017153;28;20710;-95
2022/10/26 11:43:07;;;;;;;2.43;2.20;;;20.80;99.90;;;;;;5004307;28;20230;-95
2022/10/26 11:45:40;;;;;;;8.93;2.47;;;20.90;99.90;;;;;;5017817;28;20259;-96
2022/10/26 11:48:23;;;;;;;2.43;2.20;;;20.50;99.90;;;;;;4995131;28;20240;-96
2022/10/26 11:50:56;;;;;;;5.03;2.33;;;20.40;99.90;;;;;;5014984;28;20214;-96
2022/10/26 11:53:46;;;;;;;2.83;2.17;;;20.80;99.90;;;;;;5017792;28;20273;-95
2022/10/26 11:56:34;;;;;;;3.93;2.80;;;20.60;99.90;;;;;;5031419;28;20219;-96
2022/10/26 11:59:01;;;;;;;3.43;2.47;;;20.30;99.90;;;;;;5017755;28;20216;-95
2022/10/26 12:04:03;;;;;;;3.27;2.37;;;19.50;99.90;;;;;;5069376;23;20238;-96
2022/10/26 12:06:32;;;;;;;4.53;2.60;;;19.30;99.90;;;;;;4961716;28;20266;-96
2022/10/26 12:12:37;;;;;;;6.53;2.27;;;19.10;99.90;;;;;;4986910;28;20232;-96
2022/10/26 12:15:15;;;;;;;2.60;2.17;;;19.20;99.90;;;;;;5014512;28;20207;-96
2022/10/26 12:17:54;;;;;;;5.63;2.90;;;19.50;99.90;;;;;;5018051;28;20214;-96
2022/10/26 12:21:01;;;;;;;5.13;2.90;;;19.50;99.90;;;;;;5001459;28;20271;-96
2022/10/26 12:23:40;;;;;;;3.17;2.67;;;19.80;99.90;;;;;;5002923;28;20657;-96
2022/10/26 12:26:22;;;;;;;4.43;2.63;;;20.00;99.90;;;;;;5014088;28;20183;-96
2022/10/26 12:29:04;;;;;;;3.00;2.47;;;20.00;99.90;;;;;;5008782;28;20238;-96
2022/10/26 12:31:55;;;;;;;4.47;2.57;;;19.80;99.90;;;;;;5016866;28;20230;-96
2022/10/26 12:35:21;;;;;;;3.53;2.33;;;19.90;99.90;;;;;;5051198;23;20248;-95
2022/10/26 12:38:41;;;;;;;6.80;3.40;;;19.60;99.90;;;;;;5063811;28;20228;-96
2022/10/26 12:41:24;;;;;;;2.60;2.40;;;19.40;99.90;;;;;;5060342;28;20223;-96
2022/10/26 12:57:35;;;;;;;4.77;2.67;;;19.00;99.90;;;;;;5031566;28;20827;-96
2022/10/26 13:03:10;;;;;;;5.67;1.73;;;18.90;99.90;;;;;;5048637;23;20270;-95
2022/10/26 13:05:59;;;;;;;4.50;2.40;;;19.10;99.90;;;;;;5034657;28;20226;-95
2022/10/26 13:08:25;;;;;;;2.33;1.90;;;19.20;99.90;;;;;;5042255;28;20702;-92
2022/10/26 13:11:11;;;;;;;7.70;2.77;;;19.00;99.90;;;;;;5034433;28;20270;-93
2022/10/26 13:13:40;;;;;;;2.73;2.20;;;19.10;99.90;;;;;;5034522;28;20229;-92
2022/10/26 13:16:11;;;;;;;6.13;2.53;;;19.00;99.90;;;;;;5019657;28;20196;-94
2022/10/26 13:19:33;;;;;;;4.80;2.93;;;19.10;99.90;;;;;;5037605;28;20189;-95
2022/10/26 13:21:59;;;;;;;6.67;3.23;;;19.10;99.90;;;;;;4970102;28;20235;-94
2022/10/26 13:24:31;;;;;;;4.17;3.27;;;18.90;99.90;;;;;;5019109;28;20206;-94
2022/10/26 13:27:21;;;;;;;3.70;2.87;;;18.90;99.90;;;;;;5038525;28;20329;-93
2022/10/26 13:30:02;;;;;;;6.53;2.70;;;18.90;99.90;;;;;;5026144;28;20222;-93
2022/10/26 13:32:53;;;;;;;2.83;2.50;;;18.90;99.90;;;;;;5023947;28;20789;-93
2022/10/26 13:35:21;;;;;;;8.67;2.73;;;18.80;99.90;;;;;;5018878;28;20222;-94
2022/10/26 13:37:54;;;;;;;6.90;2.70;;;18.90;99.90;;;;;;5034613;28;20202;-95